sensor_id;sensor_type;location;lat;lon;timestamp;temperature;humidity
18229;DHT22;9239;50.932;3.142;2023-06-26T00:00:08;20.80;99.90
18229;DHT22;9239;50.932;3.142;2023-06-26T00:02:36;20.70;99.90
18229;DHT22;9239;50.932;3.142;2023-06-26T00:05:04;20.60;99.90
18229;DHT22;9239;50.932;3.142;2023-06-26T00:07:31;20.60;99.90
18229;DHT22;9239;50.932;3.142;2023-06-26T00:10:01;20.60;99.90
18229;DHT22;9239;50.932;3.142;2023-06-26T00:12:28;20.60;99.90
18229;DHT22;9239;50.932;3.142;2023-06-26T00:14:56;20.50;99.90
18229;DHT22;9239;50.932;3.142;2023-06-26T00:17:23;20.50;99.90
18229;DHT22;9239;50.932;3.142;2023-06-26T00:19:51;20.40;99.90
18229;DHT22;9239;50.932;3.142;2023-06-26T00:22:18;20.40;99.90
18229;DHT22;9239;50.932;3.142;2023-06-26T00:24:44;20.40;99.90
18229;DHT22;9239;50.932;3.142;2023-06-26T00:27:13;20.40;99.90
18229;DHT22;9239;50.932;3.142;2023-06-26T00:29:40;20.40;99.90
18229;DHT22;9239;50.932;3.142;2023-06-26T00:32:07;20.30;99.90
18229;DHT22;9239;50.932;3.142;2023-06-26T00:34:34;20.30;99.90
18229;DHT22;9239;50.932;3.142;2023-06-26T00:37:01;20.30;99.90
18229;DHT22;9239;50.932;3.142;2023-06-26T00:39:29;20.30;99.90
18229;DHT22;9239;50.932;3.142;2023-06-26T00:41:56;20.30;99.90
18229;DHT22;9239;50.932;3.142;2023-06-26T00:44:24;20.20;99.90
18229;DHT22;9239;50.932;3.142;2023-06-26T00:46:51;20.10;99.90
18229;DHT22;9239;50.932;3.142;2023-06-26T00:49:18;20.10;99.90
18229;DHT22;9239;50.932;3.142;2023-06-26T00:51:45;20.00;99.90
18229;DHT22;9239;50.932;3.142;2023-06-26T00:54:13;20.00;99.90
18229;DHT22;9239;50.932;3.142;2023-06-26T00:56:45;20.00;99.90
18229;DHT22;9239;50.932;3.142;2023-06-26T00:59:12;19.90;99.90
18229;DHT22;9239;50.932;3.142;2023-06-26T01:01:41;19.90;99.90
18229;DHT22;9239;50.932;3.142;2023-06-26T01:04:08;19.80;99.90
18229;DHT22;9239;50.932;3.142;2023-06-26T01:06:44;19.80;99.90
18229;DHT22;9239;50.932;3.142;2023-06-26T01:09:16;19.80;99.90
18229;DHT22;9239;50.932;3.142;2023-06-26T01:11:43;19.70;99.90
18229;DHT22;9239;50.932;3.142;2023-06-26T01:14:10;19.70;99.90
18229;DHT22;9239;50.932;3.142;2023-06-26T01:16:38;19.60;99.90
18229;DHT22;9239;50.932;3.142;2023-06-26T01:19:10;19.50;99.90
18229;DHT22;9239;50.932;3.142;2023-06-26T01:21:42;19.50;99.90
18229;DHT22;9239;50.932;3.142;2023-06-26T01:24:16;19.40;99.90
18229;DHT22;9239;50.932;3.142;2023-06-26T01:26:49;19.30;99.90
18229;DHT22;9239;50.932;3.142;2023-06-26T01:29:18;19.30;99.90
18229;DHT22;9239;50.932;3.142;2023-06-26T01:31:47;19.30;99.90
18229;DHT22;9239;50.932;3.142;2023-06-26T01:34:15;19.20;99.90
18229;DHT22;9239;50.932;3.142;2023-06-26T01:36:44;19.20;99.90
18229;DHT22;9239;50.932;3.142;2023-06-26T01:39:14;19.20;99.90
18229;DHT22;9239;50.932;3.142;2023-06-26T01:41:41;19.10;99.90
18229;DHT22;9239;50.932;3.142;2023-06-26T01:44:20;19.00;99.90
18229;DHT22;9239;50.932;3.142;2023-06-26T01:46:57;19.00;99.90
18229;DHT22;9239;50.932;3.142;2023-06-26T01:49:38;18.90;99.90
18229;DHT22;9239;50.932;3.142;2023-06-26T01:52:19;18.90;99.90
18229;DHT22;9239;50.932;3.142;2023-06-26T01:54:54;18.90;99.90
18229;DHT22;9239;50.932;3.142;2023-06-26T01:57:22;18.90;99.90
18229;DHT22;9239;50.932;3.142;2023-06-26T01:59:55;18.90;99.90
18229;DHT22;9239;50.932;3.142;2023-06-26T02:02:23;18.80;99.90
18229;DHT22;9239;50.932;3.142;2023-06-26T02:04:50;18.80;99.90
18229;DHT22;9239;50.932;3.142;2023-06-26T02:07:17;18.80;99.90
18229;DHT22;9239;50.932;3.142;2023-06-26T02:09:44;18.80;99.90
18229;DHT22;9239;50.932;3.142;2023-06-26T02:12:11;18.70;99.90
18229;DHT22;9239;50.932;3.142;2023-06-26T02:14:38;18.70;99.90
18229;DHT22;9239;50.932;3.142;2023-06-26T02:17:06;18.60;99.90
18229;DHT22;9239;50.932;3.142;2023-06-26T02:19:34;18.60;99.90
18229;DHT22;9239;50.932;3.142;2023-06-26T02:22:01;18.50;99.90
18229;DHT22;9239;50.932;3.142;2023-06-26T02:24:28;18.50;99.90
18229;DHT22;9239;50.932;3.142;2023-06-26T02:26:55;18.50;99.90
18229;DHT22;9239;50.932;3.142;2023-06-26T02:29:23;18.40;99.90
18229;DHT22;9239;50.932;3.142;2023-06-26T02:31:49;18.30;99.90
18229;DHT22;9239;50.932;3.142;2023-06-26T02:34:18;18.30;99.90
18229;DHT22;9239;50.932;3.142;2023-06-26T02:36:45;18.30;99.90
18229;DHT22;9239;50.932;3.142;2023-06-26T02:39:11;18.20;99.90
18229;DHT22;9239;50.932;3.142;2023-06-26T02:41:39;18.20;99.90
18229;DHT22;9239;50.932;3.142;2023-06-26T02:44:06;18.20;99.90
18229;DHT22;9239;50.932;3.142;2023-06-26T02:46:33;18.20;99.90
18229;DHT22;9239;50.932;3.142;2023-06-26T02:49:00;18.20;99.90
18229;DHT22;9239;50.932;3.142;2023-06-26T02:51:28;18.10;99.90
18229;DHT22;9239;50.932;3.142;2023-06-26T02:53:55;18.20;99.90
18229;DHT22;9239;50.932;3.142;2023-06-26T02:56:22;18.20;99.90
18229;DHT22;9239;50.932;3.142;2023-06-26T02:58:49;18.10;99.90
18229;DHT22;9239;50.932;3.142;2023-06-26T03:01:16;18.10;99.90
18229;DHT22;9239;50.932;3.142;2023-06-26T03:03:43;18.00;99.90
18229;DHT22;9239;50.932;3.142;2023-06-26T03:06:09;18.00;99.90
18229;DHT22;9239;50.932;3.142;2023-06-26T03:08:38;18.00;99.90
18229;DHT22;9239;50.932;3.142;2023-06-26T03:11:05;18.00;99.90
18229;DHT22;9239;50.932;3.142;2023-06-26T03:13:32;18.00;99.90
18229;DHT22;9239;50.932;3.142;2023-06-26T03:15:59;17.90;99.90
18229;DHT22;9239;50.932;3.142;2023-06-26T03:18:26;18.00;99.90
18229;DHT22;9239;50.932;3.142;2023-06-26T03:20:54;17.90;99.90
18229;DHT22;9239;50.932;3.142;2023-06-26T03:23:22;17.90;99.90
18229;DHT22;9239;50.932;3.142;2023-06-26T03:25:51;17.80;99.90
18229;DHT22;9239;50.932;3.142;2023-06-26T03:28:18;17.80;99.90
18229;DHT22;9239;50.932;3.142;2023-06-26T03:30:45;17.70;99.90
18229;DHT22;9239;50.932;3.142;2023-06-26T03:33:12;17.60;99.90
18229;DHT22;9239;50.932;3.142;2023-06-26T03:35:39;17.60;99.90
18229;DHT22;9239;50.932;3.142;2023-06-26T03:38:06;17.60;99.90
18229;DHT22;9239;50.932;3.142;2023-06-26T03:40:32;17.60;99.90
18229;DHT22;9239;50.932;3.142;2023-06-26T03:43:01;17.60;99.90
18229;DHT22;9239;50.932;3.142;2023-06-26T03:45:28;17.60;99.90
18229;DHT22;9239;50.932;3.142;2023-06-26T03:47:55;17.50;99.90
18229;DHT22;9239;50.932;3.142;2023-06-26T03:50:22;17.60;99.90
18229;DHT22;9239;50.932;3.142;2023-06-26T03:52:48;17.50;99.90
18229;DHT22;9239;50.932;3.142;2023-06-26T03:55:17;17.50;99.90
18229;DHT22;9239;50.932;3.142;2023-06-26T03:57:44;17.50;99.90
18229;DHT22;9239;50.932;3.142;2023-06-26T04:00:14;17.40;99.90
18229;DHT22;9239;50.932;3.142;2023-06-26T04:02:41;17.40;99.90
18229;DHT22;9239;50.932;3.142;2023-06-26T04:05:08;17.40;99.90
18229;DHT22;9239;50.932;3.142;2023-06-26T04:07:35;17.30;99.90
18229;DHT22;9239;50.932;3.142;2023-06-26T04:10:02;17.20;99.90
18229;DHT22;9239;50.932;3.142;2023-06-26T04:12:29;17.20;99.90
18229;DHT22;9239;50.932;3.142;2023-06-26T04:14:56;17.20;99.90
18229;DHT22;9239;50.932;3.142;2023-06-26T04:17:24;17.20;99.90
18229;DHT22;9239;50.932;3.142;2023-06-26T04:19:51;17.20;99.90
18229;DHT22;9239;50.932;3.142;2023-06-26T04:22:18;17.20;99.90
18229;DHT22;9239;50.932;3.142;2023-06-26T04:24:45;17.10;99.90
18229;DHT22;9239;50.932;3.142;2023-06-26T04:27:12;17.20;99.90
18229;DHT22;9239;50.932;3.142;2023-06-26T04:29:40;17.20;99.90
18229;DHT22;9239;50.932;3.142;2023-06-26T04:32:07;17.20;99.90
18229;DHT22;9239;50.932;3.142;2023-06-26T04:34:35;17.10;99.90
18229;DHT22;9239;50.932;3.142;2023-06-26T04:37:06;17.10;99.90
18229;DHT22;9239;50.932;3.142;2023-06-26T04:39:35;17.20;99.90
18229;DHT22;9239;50.932;3.142;2023-06-26T04:42:05;17.20;99.90
18229;DHT22;9239;50.932;3.142;2023-06-26T04:44:32;17.20;99.90
18229;DHT22;9239;50.932;3.142;2023-06-26T04:46:59;17.20;99.90
18229;DHT22;9239;50.932;3.142;2023-06-26T04:49:26;17.20;99.90
18229;DHT22;9239;50.932;3.142;2023-06-26T04:51:56;17.10;99.90
18229;DHT22;9239;50.932;3.142;2023-06-26T04:54:26;17.20;99.90
18229;DHT22;9239;50.932;3.142;2023-06-26T04:56:53;17.20;99.90
18229;DHT22;9239;50.932;3.142;2023-06-26T04:59:20;17.30;99.90
18229;DHT22;9239;50.932;3.142;2023-06-26T05:01:46;17.20;99.90
18229;DHT22;9239;50.932;3.142;2023-06-26T05:04:14;17.30;99.90
18229;DHT22;9239;50.932;3.142;2023-06-26T05:06:41;17.40;99.90
18229;DHT22;9239;50.932;3.142;2023-06-26T05:09:09;17.40;99.90
18229;DHT22;9239;50.932;3.142;2023-06-26T05:11:37;17.50;99.90
18229;DHT22;9239;50.932;3.142;2023-06-26T05:14:04;17.50;99.90
18229;DHT22;9239;50.932;3.142;2023-06-26T05:16:33;17.60;99.90
18229;DHT22;9239;50.932;3.142;2023-06-26T05:19:00;17.70;99.90
18229;DHT22;9239;50.932;3.142;2023-06-26T05:21:28;17.70;99.90
18229;DHT22;9239;50.932;3.142;2023-06-26T05:23:57;17.70;99.90
18229;DHT22;9239;50.932;3.142;2023-06-26T05:26:26;17.90;99.90
18229;DHT22;9239;50.932;3.142;2023-06-26T05:28:54;18.20;99.90
18229;DHT22;9239;50.932;3.142;2023-06-26T05:31:21;18.30;99.90
18229;DHT22;9239;50.932;3.142;2023-06-26T05:33:49;18.30;99.90
18229;DHT22;9239;50.932;3.142;2023-06-26T05:36:16;18.20;99.90
18229;DHT22;9239;50.932;3.142;2023-06-26T05:38:45;18.20;99.90
18229;DHT22;9239;50.932;3.142;2023-06-26T05:41:12;18.10;99.90
18229;DHT22;9239;50.932;3.142;2023-06-26T05:43:41;18.10;99.90
18229;DHT22;9239;50.932;3.142;2023-06-26T05:46:08;18.20;99.90
18229;DHT22;9239;50.932;3.142;2023-06-26T05:48:35;18.30;99.90
18229;DHT22;9239;50.932;3.142;2023-06-26T05:51:02;18.30;99.90
18229;DHT22;9239;50.932;3.142;2023-06-26T05:53:30;18.30;99.90
18229;DHT22;9239;50.932;3.142;2023-06-26T05:55:58;18.50;99.90
18229;DHT22;9239;50.932;3.142;2023-06-26T05:58:26;18.50;99.90
18229;DHT22;9239;50.932;3.142;2023-06-26T06:00:55;18.40;99.90
18229;DHT22;9239;50.932;3.142;2023-06-26T06:03:22;18.50;99.90
18229;DHT22;9239;50.932;3.142;2023-06-26T06:05:49;18.50;99.90
18229;DHT22;9239;50.932;3.142;2023-06-26T06:08:16;18.50;99.90
18229;DHT22;9239;50.932;3.142;2023-06-26T06:10:43;18.50;99.90
18229;DHT22;9239;50.932;3.142;2023-06-26T06:13:10;18.40;99.90
18229;DHT22;9239;50.932;3.142;2023-06-26T06:15:37;18.50;99.90
18229;DHT22;9239;50.932;3.142;2023-06-26T06:18:05;18.50;99.90
18229;DHT22;9239;50.932;3.142;2023-06-26T06:20:33;18.50;99.90
18229;DHT22;9239;50.932;3.142;2023-06-26T06:22:59;18.60;99.90
18229;DHT22;9239;50.932;3.142;2023-06-26T06:25:26;18.80;99.90
18229;DHT22;9239;50.932;3.142;2023-06-26T06:27:53;18.90;99.90
18229;DHT22;9239;50.932;3.142;2023-06-26T06:30:20;18.90;99.90
18229;DHT22;9239;50.932;3.142;2023-06-26T06:32:47;19.00;99.90
18229;DHT22;9239;50.932;3.142;2023-06-26T06:35:18;18.90;99.90
18229;DHT22;9239;50.932;3.142;2023-06-26T06:37:45;18.90;99.90
18229;DHT22;9239;50.932;3.142;2023-06-26T06:40:12;19.10;99.90
18229;DHT22;9239;50.932;3.142;2023-06-26T06:42:40;19.20;99.90
18229;DHT22;9239;50.932;3.142;2023-06-26T06:45:07;19.20;99.90
18229;DHT22;9239;50.932;3.142;2023-06-26T06:47:34;19.30;99.90
18229;DHT22;9239;50.932;3.142;2023-06-26T06:50:01;19.20;99.90
18229;DHT22;9239;50.932;3.142;2023-06-26T06:52:35;19.30;99.90
18229;DHT22;9239;50.932;3.142;2023-06-26T06:55:03;19.30;99.90
18229;DHT22;9239;50.932;3.142;2023-06-26T06:57:32;19.30;99.90
18229;DHT22;9239;50.932;3.142;2023-06-26T07:00:02;19.30;99.90
18229;DHT22;9239;50.932;3.142;2023-06-26T07:02:30;19.30;99.90
18229;DHT22;9239;50.932;3.142;2023-06-26T07:04:57;19.30;99.90
18229;DHT22;9239;50.932;3.142;2023-06-26T07:07:28;19.30;99.90
18229;DHT22;9239;50.932;3.142;2023-06-26T07:09:57;19.40;99.90
18229;DHT22;9239;50.932;3.142;2023-06-26T07:12:24;19.40;99.90
18229;DHT22;9239;50.932;3.142;2023-06-26T07:14:51;19.50;99.90
18229;DHT22;9239;50.932;3.142;2023-06-26T07:17:19;19.50;99.90
18229;DHT22;9239;50.932;3.142;2023-06-26T07:19:46;19.50;99.90
18229;DHT22;9239;50.932;3.142;2023-06-26T07:22:13;19.50;99.90
18229;DHT22;9239;50.932;3.142;2023-06-26T07:24:40;19.40;99.90
18229;DHT22;9239;50.932;3.142;2023-06-26T07:27:08;19.40;99.90
18229;DHT22;9239;50.932;3.142;2023-06-26T07:29:35;19.50;99.90
18229;DHT22;9239;50.932;3.142;2023-06-26T07:32:02;19.50;99.90
18229;DHT22;9239;50.932;3.142;2023-06-26T07:34:29;19.60;99.90
18229;DHT22;9239;50.932;3.142;2023-06-26T07:36:56;19.70;99.90
18229;DHT22;9239;50.932;3.142;2023-06-26T07:39:23;20.00;99.90
18229;DHT22;9239;50.932;3.142;2023-06-26T07:41:49;20.50;99.90
18229;DHT22;9239;50.932;3.142;2023-06-26T07:44:18;21.20;99.90
18229;DHT22;9239;50.932;3.142;2023-06-26T07:46:45;21.30;99.90
18229;DHT22;9239;50.932;3.142;2023-06-26T07:49:12;21.10;99.90
18229;DHT22;9239;50.932;3.142;2023-06-26T07:51:39;20.60;99.90
18229;DHT22;9239;50.932;3.142;2023-06-26T07:54:06;20.50;99.90
18229;DHT22;9239;50.932;3.142;2023-06-26T07:56:38;20.40;99.90
18229;DHT22;9239;50.932;3.142;2023-06-26T07:59:20;20.50;99.90
18229;DHT22;9239;50.932;3.142;2023-06-26T08:01:47;20.70;99.90
18229;DHT22;9239;50.932;3.142;2023-06-26T08:04:14;20.70;99.90
18229;DHT22;9239;50.932;3.142;2023-06-26T08:06:41;20.50;99.90
18229;DHT22;9239;50.932;3.142;2023-06-26T08:09:08;20.50;99.90
18229;DHT22;9239;50.932;3.142;2023-06-26T08:11:35;20.50;99.90
18229;DHT22;9239;50.932;3.142;2023-06-26T08:14:02;20.30;99.90
18229;DHT22;9239;50.932;3.142;2023-06-26T08:16:30;20.20;99.90
18229;DHT22;9239;50.932;3.142;2023-06-26T08:18:57;20.30;99.90
18229;DHT22;9239;50.932;3.142;2023-06-26T08:21:24;20.50;99.90
18229;DHT22;9239;50.932;3.142;2023-06-26T08:23:51;20.70;99.90
18229;DHT22;9239;50.932;3.142;2023-06-26T08:26:17;20.80;99.90
18229;DHT22;9239;50.932;3.142;2023-06-26T08:28:44;20.70;99.90
18229;DHT22;9239;50.932;3.142;2023-06-26T08:31:11;20.60;99.90
18229;DHT22;9239;50.932;3.142;2023-06-26T08:33:39;20.70;99.90
18229;DHT22;9239;50.932;3.142;2023-06-26T08:36:06;20.80;99.90
18229;DHT22;9239;50.932;3.142;2023-06-26T08:38:33;20.80;99.90
18229;DHT22;9239;50.932;3.142;2023-06-26T08:41:00;20.80;99.90
18229;DHT22;9239;50.932;3.142;2023-06-26T08:43:28;20.80;99.90
18229;DHT22;9239;50.932;3.142;2023-06-26T08:45:54;20.80;99.90
18229;DHT22;9239;50.932;3.142;2023-06-26T08:48:21;20.60;99.90
18229;DHT22;9239;50.932;3.142;2023-06-26T08:50:52;20.50;99.90
18229;DHT22;9239;50.932;3.142;2023-06-26T08:53:23;20.70;99.90
18229;DHT22;9239;50.932;3.142;2023-06-26T08:55:54;21.00;99.90
18229;DHT22;9239;50.932;3.142;2023-06-26T08:58:24;21.10;99.90
18229;DHT22;9239;50.932;3.142;2023-06-26T09:00:51;21.10;99.90
18229;DHT22;9239;50.932;3.142;2023-06-26T09:03:18;21.10;99.90
18229;DHT22;9239;50.932;3.142;2023-06-26T09:05:45;21.20;99.90
18229;DHT22;9239;50.932;3.142;2023-06-26T09:08:13;21.30;99.90
18229;DHT22;9239;50.932;3.142;2023-06-26T09:10:41;21.60;99.90
18229;DHT22;9239;50.932;3.142;2023-06-26T09:13:07;21.50;99.90
18229;DHT22;9239;50.932;3.142;2023-06-26T09:15:38;21.20;99.90
18229;DHT22;9239;50.932;3.142;2023-06-26T09:18:05;21.30;99.90
18229;DHT22;9239;50.932;3.142;2023-06-26T09:20:33;21.30;99.90
18229;DHT22;9239;50.932;3.142;2023-06-26T09:23:00;21.20;99.90
18229;DHT22;9239;50.932;3.142;2023-06-26T09:25:29;21.30;99.90
18229;DHT22;9239;50.932;3.142;2023-06-26T09:27:56;21.40;99.90
18229;DHT22;9239;50.932;3.142;2023-06-26T09:30:24;21.60;99.90
18229;DHT22;9239;50.932;3.142;2023-06-26T09:32:51;21.50;99.90
18229;DHT22;9239;50.932;3.142;2023-06-26T09:35:20;21.80;99.90
18229;DHT22;9239;50.932;3.142;2023-06-26T09:37:47;21.70;99.90
18229;DHT22;9239;50.932;3.142;2023-06-26T09:40:14;21.60;99.90
18229;DHT22;9239;50.932;3.142;2023-06-26T09:42:43;21.70;99.90
18229;DHT22;9239;50.932;3.142;2023-06-26T09:45:18;21.90;99.90
18229;DHT22;9239;50.932;3.142;2023-06-26T09:47:45;22.00;99.90
18229;DHT22;9239;50.932;3.142;2023-06-26T09:50:21;22.10;99.90
18229;DHT22;9239;50.932;3.142;2023-06-26T09:52:50;22.40;99.90
18229;DHT22;9239;50.932;3.142;2023-06-26T09:55:19;22.60;99.90
18229;DHT22;9239;50.932;3.142;2023-06-26T09:57:49;22.50;99.90
18229;DHT22;9239;50.932;3.142;2023-06-26T10:00:17;22.50;99.90
18229;DHT22;9239;50.932;3.142;2023-06-26T10:02:44;22.50;99.90
18229;DHT22;9239;50.932;3.142;2023-06-26T10:05:11;22.30;99.90
18229;DHT22;9239;50.932;3.142;2023-06-26T10:07:39;21.90;99.90
18229;DHT22;9239;50.932;3.142;2023-06-26T10:10:08;21.80;99.90
18229;DHT22;9239;50.932;3.142;2023-06-26T10:12:35;21.70;99.90
18229;DHT22;9239;50.932;3.142;2023-06-26T10:15:04;21.80;99.90
18229;DHT22;9239;50.932;3.142;2023-06-26T10:17:35;21.80;99.90
18229;DHT22;9239;50.932;3.142;2023-06-26T10:20:03;22.10;99.90
18229;DHT22;9239;50.932;3.142;2023-06-26T10:22:41;22.20;99.90
18229;DHT22;9239;50.932;3.142;2023-06-26T10:25:09;22.20;99.90
18229;DHT22;9239;50.932;3.142;2023-06-26T10:27:40;22.30;99.90
18229;DHT22;9239;50.932;3.142;2023-06-26T10:30:13;22.40;99.90
18229;DHT22;9239;50.932;3.142;2023-06-26T10:32:41;22.30;99.90
18229;DHT22;9239;50.932;3.142;2023-06-26T10:35:10;22.40;99.90
18229;DHT22;9239;50.932;3.142;2023-06-26T10:37:43;22.60;99.90
18229;DHT22;9239;50.932;3.142;2023-06-26T10:40:11;22.80;99.90
18229;DHT22;9239;50.932;3.142;2023-06-26T10:42:40;23.00;99.90
18229;DHT22;9239;50.932;3.142;2023-06-26T10:45:14;23.10;99.90
18229;DHT22;9239;50.932;3.142;2023-06-26T10:47:44;22.80;99.90
18229;DHT22;9239;50.932;3.142;2023-06-26T10:50:19;22.80;99.90
18229;DHT22;9239;50.932;3.142;2023-06-26T10:53:07;22.50;99.90
18229;DHT22;9239;50.932;3.142;2023-06-26T10:55:35;22.40;99.90
18229;DHT22;9239;50.932;3.142;2023-06-26T10:58:03;22.40;99.90
18229;DHT22;9239;50.932;3.142;2023-06-26T11:00:33;22.70;99.90
18229;DHT22;9239;50.932;3.142;2023-06-26T11:03:00;23.00;99.90
18229;DHT22;9239;50.932;3.142;2023-06-26T11:05:27;22.90;99.90
18229;DHT22;9239;50.932;3.142;2023-06-26T11:08:05;22.90;99.90
18229;DHT22;9239;50.932;3.142;2023-06-26T11:10:53;22.70;99.90
18229;DHT22;9239;50.932;3.142;2023-06-26T11:13:21;22.30;99.90
18229;DHT22;9239;50.932;3.142;2023-06-26T11:15:53;22.10;99.90
18229;DHT22;9239;50.932;3.142;2023-06-26T11:18:22;21.70;99.90
18229;DHT22;9239;50.932;3.142;2023-06-26T11:20:50;21.70;99.90
18229;DHT22;9239;50.932;3.142;2023-06-26T11:23:22;21.70;99.90
18229;DHT22;9239;50.932;3.142;2023-06-26T11:25:50;21.90;99.90
18229;DHT22;9239;50.932;3.142;2023-06-26T11:28:17;22.10;99.90
18229;DHT22;9239;50.932;3.142;2023-06-26T11:30:43;22.30;99.90
18229;DHT22;9239;50.932;3.142;2023-06-26T11:33:12;22.40;99.90
18229;DHT22;9239;50.932;3.142;2023-06-26T11:35:39;22.40;99.90
18229;DHT22;9239;50.932;3.142;2023-06-26T11:38:06;22.30;99.90
18229;DHT22;9239;50.932;3.142;2023-06-26T11:40:36;22.40;99.90
18229;DHT22;9239;50.932;3.142;2023-06-26T11:43:03;22.50;99.90
18229;DHT22;9239;50.932;3.142;2023-06-26T11:45:31;22.30;99.90
18229;DHT22;9239;50.932;3.142;2023-06-26T11:47:58;22.30;99.90
18229;DHT22;9239;50.932;3.142;2023-06-26T11:50:27;22.40;99.90
18229;DHT22;9239;50.932;3.142;2023-06-26T11:52:55;22.50;99.90
18229;DHT22;9239;50.932;3.142;2023-06-26T11:55:23;22.50;99.90
18229;DHT22;9239;50.932;3.142;2023-06-26T11:57:50;22.50;99.90
18229;DHT22;9239;50.932;3.142;2023-06-26T12:00:17;22.60;99.90
18229;DHT22;9239;50.932;3.142;2023-06-26T12:02:44;22.60;99.90
18229;DHT22;9239;50.932;3.142;2023-06-26T12:05:12;22.80;99.90
18229;DHT22;9239;50.932;3.142;2023-06-26T12:07:41;22.90;99.90
18229;DHT22;9239;50.932;3.142;2023-06-26T12:10:09;23.00;99.90
18229;DHT22;9239;50.932;3.142;2023-06-26T12:12:37;22.80;99.90
18229;DHT22;9239;50.932;3.142;2023-06-26T12:15:06;22.60;99.90
18229;DHT22;9239;50.932;3.142;2023-06-26T12:17:33;22.70;99.90
18229;DHT22;9239;50.932;3.142;2023-06-26T12:20:04;22.90;99.90
18229;DHT22;9239;50.932;3.142;2023-06-26T12:22:36;22.90;99.90
18229;DHT22;9239;50.932;3.142;2023-06-26T12:25:07;22.90;99.90
18229;DHT22;9239;50.932;3.142;2023-06-26T12:27:35;22.80;99.90
18229;DHT22;9239;50.932;3.142;2023-06-26T12:30:04;22.70;99.90
18229;DHT22;9239;50.932;3.142;2023-06-26T12:32:31;22.70;99.90
18229;DHT22;9239;50.932;3.142;2023-06-26T12:34:58;22.60;99.90
18229;DHT22;9239;50.932;3.142;2023-06-26T12:37:25;22.50;99.90
18229;DHT22;9239;50.932;3.142;2023-06-26T12:39:54;22.50;99.90
18229;DHT22;9239;50.932;3.142;2023-06-26T12:42:23;22.50;99.90
18229;DHT22;9239;50.932;3.142;2023-06-26T12:44:50;22.50;99.90
18229;DHT22;9239;50.932;3.142;2023-06-26T12:47:24;22.50;99.90
18229;DHT22;9239;50.932;3.142;2023-06-26T12:49:53;22.60;99.90
18229;DHT22;9239;50.932;3.142;2023-06-26T12:52:21;22.60;99.90
18229;DHT22;9239;50.932;3.142;2023-06-26T12:54:51;22.60;99.90
18229;DHT22;9239;50.932;3.142;2023-06-26T12:57:18;22.90;99.90
18229;DHT22;9239;50.932;3.142;2023-06-26T12:59:47;23.00;99.90
18229;DHT22;9239;50.932;3.142;2023-06-26T13:02:14;23.10;99.90
18229;DHT22;9239;50.932;3.142;2023-06-26T13:04:41;23.10;99.90
18229;DHT22;9239;50.932;3.142;2023-06-26T13:07:10;22.60;99.90
18229;DHT22;9239;50.932;3.142;2023-06-26T13:09:37;22.60;99.90
18229;DHT22;9239;50.932;3.142;2023-06-26T13:12:06;22.60;99.90
18229;DHT22;9239;50.932;3.142;2023-06-26T13:14:33;22.60;99.90
18229;DHT22;9239;50.932;3.142;2023-06-26T13:17:02;22.50;99.90
18229;DHT22;9239;50.932;3.142;2023-06-26T13:19:29;22.50;99.90
18229;DHT22;9239;50.932;3.142;2023-06-26T13:21:56;22.40;99.90
18229;DHT22;9239;50.932;3.142;2023-06-26T13:24:23;22.60;99.90
18229;DHT22;9239;50.932;3.142;2023-06-26T13:26:50;22.40;99.90
18229;DHT22;9239;50.932;3.142;2023-06-26T13:29:17;22.40;99.90
18229;DHT22;9239;50.932;3.142;2023-06-26T13:31:44;22.30;99.90
18229;DHT22;9239;50.932;3.142;2023-06-26T13:34:21;22.40;99.90
18229;DHT22;9239;50.932;3.142;2023-06-26T13:36:48;22.60;99.90
18229;DHT22;9239;50.932;3.142;2023-06-26T13:39:15;22.70;99.90
18229;DHT22;9239;50.932;3.142;2023-06-26T13:41:42;22.60;99.90
18229;DHT22;9239;50.932;3.142;2023-06-26T13:44:09;22.50;99.90
18229;DHT22;9239;50.932;3.142;2023-06-26T13:46:36;22.30;99.90
18229;DHT22;9239;50.932;3.142;2023-06-26T13:49:03;22.30;99.90
18229;DHT22;9239;50.932;3.142;2023-06-26T13:51:31;22.20;99.90
18229;DHT22;9239;50.932;3.142;2023-06-26T13:53:58;22.10;99.90
18229;DHT22;9239;50.932;3.142;2023-06-26T13:56:26;22.10;99.90
18229;DHT22;9239;50.932;3.142;2023-06-26T13:58:56;22.10;99.90
18229;DHT22;9239;50.932;3.142;2023-06-26T14:01:23;22.30;99.90
18229;DHT22;9239;50.932;3.142;2023-06-26T14:03:50;22.50;99.90
18229;DHT22;9239;50.932;3.142;2023-06-26T14:06:17;22.50;99.90
18229;DHT22;9239;50.932;3.142;2023-06-26T14:08:46;22.60;99.90
18229;DHT22;9239;50.932;3.142;2023-06-26T14:11:12;22.50;99.90
18229;DHT22;9239;50.932;3.142;2023-06-26T14:13:41;22.50;99.90
18229;DHT22;9239;50.932;3.142;2023-06-26T14:16:08;22.60;99.90
18229;DHT22;9239;50.932;3.142;2023-06-26T14:18:35;22.60;99.90
18229;DHT22;9239;50.932;3.142;2023-06-26T14:21:02;22.20;99.90
18229;DHT22;9239;50.932;3.142;2023-06-26T14:23:29;22.20;99.90
18229;DHT22;9239;50.932;3.142;2023-06-26T14:25:57;22.20;99.90
18229;DHT22;9239;50.932;3.142;2023-06-26T14:28:24;22.30;99.90
18229;DHT22;9239;50.932;3.142;2023-06-26T14:30:51;22.30;99.90
18229;DHT22;9239;50.932;3.142;2023-06-26T14:33:18;22.20;99.90
18229;DHT22;9239;50.932;3.142;2023-06-26T14:35:45;22.20;99.90
18229;DHT22;9239;50.932;3.142;2023-06-26T14:38:12;22.00;99.90
18229;DHT22;9239;50.932;3.142;2023-06-26T14:40:39;22.00;99.90
18229;DHT22;9239;50.932;3.142;2023-06-26T14:43:07;22.00;99.90
18229;DHT22;9239;50.932;3.142;2023-06-26T14:45:34;22.10;99.90
18229;DHT22;9239;50.932;3.142;2023-06-26T14:48:01;22.10;99.90
18229;DHT22;9239;50.932;3.142;2023-06-26T14:50:28;22.20;99.90
18229;DHT22;9239;50.932;3.142;2023-06-26T14:52:55;22.30;99.90
18229;DHT22;9239;50.932;3.142;2023-06-26T14:55:22;22.40;99.90
18229;DHT22;9239;50.932;3.142;2023-06-26T14:57:49;22.50;99.90
18229;DHT22;9239;50.932;3.142;2023-06-26T15:00:18;22.50;99.90
18229;DHT22;9239;50.932;3.142;2023-06-26T15:02:45;22.50;99.90
18229;DHT22;9239;50.932;3.142;2023-06-26T15:05:12;22.40;99.90
18229;DHT22;9239;50.932;3.142;2023-06-26T15:07:39;22.20;99.90
18229;DHT22;9239;50.932;3.142;2023-06-26T15:10:07;22.20;99.90
18229;DHT22;9239;50.932;3.142;2023-06-26T15:12:35;22.20;99.90
18229;DHT22;9239;50.932;3.142;2023-06-26T15:15:02;22.30;99.90
18229;DHT22;9239;50.932;3.142;2023-06-26T15:17:30;22.10;99.90
18229;DHT22;9239;50.932;3.142;2023-06-26T15:19:57;22.00;99.90
18229;DHT22;9239;50.932;3.142;2023-06-26T15:22:26;21.80;99.90
18229;DHT22;9239;50.932;3.142;2023-06-26T15:24:53;21.70;99.90
18229;DHT22;9239;50.932;3.142;2023-06-26T15:27:20;21.80;99.90
18229;DHT22;9239;50.932;3.142;2023-06-26T15:29:47;21.80;99.90
18229;DHT22;9239;50.932;3.142;2023-06-26T15:32:14;21.80;99.90
18229;DHT22;9239;50.932;3.142;2023-06-26T15:34:43;21.80;99.90
18229;DHT22;9239;50.932;3.142;2023-06-26T15:37:10;21.80;99.90
18229;DHT22;9239;50.932;3.142;2023-06-26T15:39:37;21.70;99.90
18229;DHT22;9239;50.932;3.142;2023-06-26T15:42:05;21.60;99.90
18229;DHT22;9239;50.932;3.142;2023-06-26T15:44:32;21.70;99.90
18229;DHT22;9239;50.932;3.142;2023-06-26T15:46:59;21.60;99.90
18229;DHT22;9239;50.932;3.142;2023-06-26T15:49:27;21.70;99.90